FAWB/PRY METAR and TAF weather

Enter ICAO airport designator
Station Type Date Time Source
FAWB METAR 2022/01/29 10:00 UTC NOAA

FAWB 291000Z AUTO 05008KT //// // ////// 23/17 Q1019


Station Type Date Time Source
FAWB Decoded METAR 2022/01/29 10:00 UTC NOAA

Wonderboom / Pretoria, South Africa (FAWB) 25-39S 028-13E
Jan 29, 2022 - 05:00 AM EST / 2022.01.29 1000 UTC
Wind: from the NE (050 degrees) at 9 MPH (8 KT):0
Temperature: 73 F (23 C)
Dew Point: 62 F (17 C)
Relative Humidity: 68%
Pressure (altimeter): 30.09 in. Hg (1019 hPa)
ob: FAWB 291000Z AUTO 05008KT //// // ////// 23/17 Q1019
cycle: 10

Station Type Date Time Source
FAWB TAF 2021/05/05 07:00 UTC NOAA

TAF FAWB 050608Z 0507/0518 VRB03KT CAVOK TX24/0512Z TN15/0518Z

Example: see airport list